createdAt,value
2023-01-12T00:02:11.653Z,100.00
2023-01-12T00:04:39.536Z,100.00
2023-01-12T00:07:09.327Z,100.00
2023-01-12T00:09:39.040Z,100.00
2023-01-12T00:12:09.883Z,100.00
2023-01-12T00:14:38.106Z,100.00
2023-01-12T00:25:58.194Z,100.00
2023-01-12T00:28:26.807Z,100.00
2023-01-12T00:31:08.708Z,100.00
2023-01-12T00:33:39.600Z,100.00
2023-01-12T00:36:13.611Z,100.00
2023-01-12T00:44:43.996Z,100.00
2023-01-12T00:47:12.172Z,100.00
2023-01-12T00:49:41.650Z,100.00
2023-01-12T00:52:24.838Z,100.00
2023-01-12T00:54:56.295Z,100.00
2023-01-12T00:57:23.830Z,100.00
2023-01-12T00:59:55.665Z,100.00
2023-01-12T01:02:23.241Z,100.00
2023-01-12T01:04:51.164Z,100.00
2023-01-12T01:07:21.861Z,100.00
2023-01-12T01:09:49.776Z,100.00
2023-01-12T01:12:20.095Z,100.00
2023-01-12T01:14:48.621Z,100.00
2023-01-12T01:17:15.839Z,100.00
2023-01-12T01:19:43.987Z,100.00
2023-01-12T01:22:13.253Z,100.00
2023-01-12T01:24:41.962Z,100.00
2023-01-12T01:27:09.499Z,100.00
2023-01-12T01:29:38.146Z,100.00
2023-01-12T01:32:06.573Z,100.00
2023-01-12T01:34:35.958Z,100.00
2023-01-12T01:37:03.359Z,100.00
2023-01-12T01:39:30.779Z,100.00
2023-01-12T01:41:59.023Z,100.00
2023-01-12T01:44:32.093Z,100.00
2023-01-12T01:47:02.903Z,100.00
2023-01-12T01:49:44.040Z,100.00
2023-01-12T01:52:26.286Z,100.00
2023-01-12T01:55:06.738Z,100.00
2023-01-12T01:57:49.186Z,100.00
2023-01-12T02:00:17.236Z,100.00
2023-01-12T02:02:46.679Z,100.00
2023-01-12T02:05:19.282Z,100.00
2023-01-12T02:07:49.482Z,100.00
2023-01-12T02:10:17.146Z,100.00
2023-01-12T02:13:04.331Z,100.00
2023-01-12T02:15:59.245Z,100.00
2023-01-12T02:18:42.357Z,100.00
2023-01-12T02:21:39.842Z,100.00
2023-01-12T02:24:41.210Z,100.00
2023-01-12T02:27:19.039Z,100.00
2023-01-12T02:30:03.957Z,100.00
2023-01-12T02:32:40.153Z,100.00
2023-01-12T02:35:25.735Z,100.00
2023-01-12T02:38:26.411Z,100.00
2023-01-12T02:41:14.277Z,100.00
2023-01-12T02:43:42.923Z,100.00
2023-01-12T02:46:28.253Z,100.00
2023-01-12T02:49:05.322Z,100.00
2023-01-12T02:51:40.761Z,100.00
2023-01-12T02:54:16.546Z,100.00
2023-01-12T02:57:11.163Z,100.00
2023-01-12T02:59:42.304Z,100.00
2023-01-12T03:02:14.165Z,100.00
2023-01-12T03:04:41.705Z,100.00
2023-01-12T03:07:15.415Z,100.00
2023-01-12T03:09:54.443Z,100.00
2023-01-12T03:12:32.842Z,100.00
2023-01-12T03:15:06.257Z,100.00
2023-01-12T03:17:52.455Z,100.00
2023-01-12T03:20:34.623Z,100.00
2023-01-12T03:23:09.485Z,100.00
2023-01-12T03:25:40.118Z,100.00
2023-01-12T03:28:09.209Z,100.00
2023-01-12T03:30:41.536Z,100.00
2023-01-12T03:33:15.078Z,100.00
2023-01-12T03:35:49.524Z,100.00
2023-01-12T03:38:24.634Z,100.00
2023-01-12T03:41:09.799Z,100.00
2023-01-12T03:43:49.455Z,100.00
2023-01-12T03:46:30.036Z,100.00
2023-01-12T03:49:24.523Z,100.00
2023-01-12T03:51:57.153Z,100.00
2023-01-12T03:54:37.903Z,100.00
2023-01-12T03:57:12.512Z,100.00
2023-01-12T03:59:40.829Z,100.00
2023-01-12T04:02:08.254Z,100.00
2023-01-12T04:04:36.213Z,100.00
2023-01-12T04:07:04.603Z,100.00
2023-01-12T04:09:32.159Z,100.00
2023-01-12T04:12:11.434Z,100.00
2023-01-12T04:14:45.134Z,100.00
2023-01-12T04:17:15.028Z,100.00
2023-01-12T04:19:42.864Z,100.00
2023-01-12T04:22:33.912Z,100.00
2023-01-12T04:25:04.369Z,100.00
2023-01-12T04:27:31.840Z,100.00
2023-01-12T04:29:59.446Z,100.00
2023-01-12T04:32:26.755Z,100.00
2023-01-12T04:35:00.373Z,100.00
2023-01-12T04:37:27.804Z,100.00
2023-01-12T04:39:55.407Z,100.00
2023-01-12T04:42:40.946Z,100.00
2023-01-12T04:45:09.078Z,100.00
2023-01-12T04:47:36.627Z,100.00
2023-01-12T04:50:04.489Z,100.00
2023-01-12T04:52:32.138Z,100.00
2023-01-12T04:54:59.524Z,100.00
2023-01-12T04:57:26.883Z,100.00
2023-01-12T04:59:54.442Z,100.00
2023-01-12T05:02:21.504Z,100.00
2023-01-12T05:04:49.876Z,100.00
2023-01-12T05:07:17.649Z,100.00
2023-01-12T05:10:04.850Z,100.00
2023-01-12T05:12:32.233Z,100.00
2023-01-12T05:14:59.649Z,100.00
2023-01-12T05:17:27.153Z,100.00
2023-01-12T05:19:54.521Z,100.00
2023-01-12T05:22:21.953Z,100.00
2023-01-12T05:24:50.594Z,100.00
2023-01-12T05:27:18.530Z,100.00
2023-01-12T05:29:45.846Z,100.00
2023-01-12T05:32:13.419Z,100.00
2023-01-12T05:34:41.910Z,100.00
2023-01-12T05:37:09.321Z,100.00
2023-01-12T05:39:36.743Z,100.00
2023-01-12T05:42:22.858Z,100.00
2023-01-12T05:44:57.891Z,100.00
2023-01-12T05:47:25.405Z,100.00
2023-01-12T05:49:53.845Z,100.00
2023-01-12T05:52:21.410Z,100.00
2023-01-12T05:54:48.798Z,100.00
2023-01-12T05:57:16.342Z,100.00
2023-01-12T05:59:43.753Z,100.00
2023-01-12T06:02:14.122Z,100.00
2023-01-12T06:04:43.249Z,100.00
2023-01-12T06:07:19.440Z,100.00
2023-01-12T06:09:48.231Z,100.00
2023-01-12T06:12:33.888Z,100.00
2023-01-12T06:15:01.298Z,100.00
2023-01-12T06:17:28.705Z,100.00
2023-01-12T06:19:56.209Z,100.00
2023-01-12T06:22:23.731Z,100.00
2023-01-12T06:24:51.070Z,100.00
2023-01-12T06:27:18.579Z,100.00
2023-01-12T06:29:46.006Z,100.00
2023-01-12T06:32:13.413Z,100.00
2023-01-12T06:34:40.920Z,100.00
2023-01-12T06:37:08.902Z,100.00
2023-01-12T06:39:38.423Z,100.00
2023-01-12T06:42:24.288Z,100.00
2023-01-12T06:44:51.748Z,100.00
2023-01-12T06:47:19.150Z,100.00
2023-01-12T06:49:47.726Z,100.00
2023-01-12T06:52:15.088Z,100.00
2023-01-12T06:54:44.715Z,100.00
2023-01-12T06:57:12.207Z,100.00
2023-01-12T06:59:46.084Z,100.00
2023-01-12T07:02:15.783Z,100.00
2023-01-12T07:04:45.776Z,100.00
2023-01-12T07:07:14.192Z,100.00
2023-01-12T07:09:41.809Z,100.00
2023-01-12T07:12:10.165Z,100.00
2023-01-12T07:14:38.668Z,100.00
2023-01-12T07:17:06.090Z,100.00
2023-01-12T07:19:33.604Z,100.00
2023-01-12T07:22:01.024Z,100.00
2023-01-12T07:24:29.484Z,100.00
2023-01-12T07:26:58.875Z,100.00
2023-01-12T07:29:27.865Z,100.00
2023-01-12T07:31:55.502Z,100.00
2023-01-12T07:34:24.971Z,100.00
2023-01-12T07:36:52.515Z,100.00
2023-01-12T07:39:20.905Z,100.00
2023-01-12T07:42:06.800Z,100.00
2023-01-12T07:44:35.306Z,100.00
2023-01-12T07:47:02.656Z,100.00
2023-01-12T07:49:30.243Z,100.00
2023-01-12T07:51:57.633Z,100.00
2023-01-12T07:54:25.048Z,100.00
2023-01-12T07:56:52.596Z,100.00
2023-01-12T07:59:20.307Z,100.00
2023-01-12T08:01:49.501Z,100.00
2023-01-12T08:04:24.402Z,100.00
2023-01-12T08:06:51.596Z,100.00
2023-01-12T08:09:19.059Z,100.00
2023-01-12T08:11:46.505Z,100.00
2023-01-12T08:14:26.480Z,100.00
2023-01-12T08:16:57.440Z,100.00
2023-01-12T08:19:38.853Z,100.00
2023-01-12T08:22:10.848Z,100.00
2023-01-12T08:24:46.352Z,100.00
2023-01-12T08:27:14.026Z,100.00
2023-01-12T08:29:45.888Z,100.00
2023-01-12T08:32:18.183Z,100.00
2023-01-12T08:34:50.703Z,100.00
2023-01-12T08:37:23.040Z,100.00
2023-01-12T08:39:51.743Z,100.00
2023-01-12T08:42:20.582Z,100.00
2023-01-12T08:44:47.901Z,100.00
2023-01-12T08:47:23.214Z,100.00
2023-01-12T08:49:50.526Z,100.00
2023-01-12T08:52:17.971Z,100.00
2023-01-12T08:54:45.527Z,100.00
2023-01-12T08:57:14.069Z,100.00
2023-01-12T08:59:42.422Z,100.00
2023-01-12T09:02:14.902Z,96.94
2023-01-12T09:04:43.584Z,93.51
2023-01-12T09:07:12.095Z,88.58
2023-01-12T09:09:39.590Z,84.07
2023-01-12T09:12:07.578Z,81.52
2023-01-12T09:14:39.187Z,78.45
2023-01-12T09:17:07.440Z,78.80
2023-01-12T09:19:34.833Z,77.66
2023-01-12T09:22:01.940Z,75.53
2023-01-12T09:24:29.288Z,73.06
2023-01-12T09:26:56.767Z,72.48
2023-01-12T09:29:26.255Z,72.89
2023-01-12T09:31:53.738Z,72.06
2023-01-12T09:34:21.120Z,72.06
2023-01-12T09:36:50.520Z,71.76
2023-01-12T09:39:33.014Z,71.34
2023-01-12T09:42:18.925Z,70.71
2023-01-12T09:45:09.234Z,67.73
2023-01-12T09:47:48.479Z,68.08
2023-01-12T09:50:47.560Z,70.16
2023-01-12T09:53:27.533Z,70.13
2023-01-12T09:56:21.831Z,68.14
2023-01-12T09:59:04.300Z,67.48
2023-01-12T10:01:31.562Z,68.64
2023-01-12T10:04:01.947Z,68.50
2023-01-12T10:06:30.138Z,68.50
2023-01-12T10:09:12.341Z,70.12
2023-01-12T10:11:51.903Z,68.71
2023-01-12T10:14:42.132Z,68.29
2023-01-12T10:17:38.513Z,67.15
2023-01-12T10:20:18.263Z,66.85
2023-01-12T10:22:56.422Z,64.32
2023-01-12T10:25:46.217Z,60.52
2023-01-12T10:28:25.972Z,61.43
2023-01-12T10:30:56.251Z,59.88
2023-01-12T10:33:28.431Z,59.34
2023-01-12T10:35:59.004Z,60.57
2023-01-12T10:38:34.172Z,62.58
2023-01-12T10:41:20.005Z,60.50
2023-01-12T10:44:06.789Z,58.83
2023-01-12T10:46:36.233Z,58.08
2023-01-12T10:49:24.573Z,58.31
2023-01-12T10:51:58.327Z,58.09
2023-01-12T10:54:31.680Z,56.70
2023-01-12T10:57:10.380Z,55.66
2023-01-12T10:59:40.354Z,53.89
2023-01-12T11:02:12.033Z,50.60
2023-01-12T11:04:49.989Z,53.36
2023-01-12T11:07:23.253Z,52.86
2023-01-12T11:09:50.661Z,53.75
2023-01-12T11:12:40.355Z,53.44
2023-01-12T11:15:10.474Z,54.15
2023-01-12T11:17:50.288Z,53.16
2023-01-12T11:20:28.968Z,53.13
2023-01-12T11:23:05.522Z,52.88
2023-01-12T11:25:53.796Z,54.49
2023-01-12T11:28:44.993Z,52.95
2023-01-12T11:31:18.112Z,54.29
2023-01-12T11:33:50.036Z,54.47
2023-01-12T11:36:42.916Z,52.54
2023-01-12T11:39:22.196Z,52.45
2023-01-12T11:42:21.139Z,51.79
2023-01-12T11:45:16.676Z,49.70
2023-01-12T11:47:51.865Z,49.65
2023-01-12T11:50:28.119Z,50.89
2023-01-12T11:53:05.497Z,49.87
2023-01-12T11:55:56.914Z,49.18
2023-01-12T11:58:49.146Z,49.79
2023-01-12T12:01:44.472Z,50.78
2023-01-12T12:04:33.294Z,51.98
2023-01-12T12:07:52.613Z,53.07
2023-01-12T12:10:28.764Z,52.92
2023-01-12T12:13:11.239Z,53.48
2023-01-12T12:16:13.341Z,52.33
2023-01-12T12:18:46.051Z,50.59
2023-01-12T12:22:10.451Z,49.51
2023-01-12T12:24:51.645Z,51.46
2023-01-12T12:27:34.938Z,51.10
2023-01-12T12:30:36.892Z,52.24
2023-01-12T12:33:33.139Z,52.75
2023-01-12T12:36:18.212Z,51.76
2023-01-12T12:39:18.975Z,51.36
2023-01-12T12:42:44.589Z,49.85
2023-01-12T12:45:40.029Z,49.83
2023-01-12T12:48:16.330Z,52.88
2023-01-12T12:51:10.221Z,51.79
2023-01-12T12:53:49.913Z,52.48
2023-01-12T12:56:24.023Z,53.97
2023-01-12T12:58:58.419Z,54.61
2023-01-12T13:01:29.846Z,56.16
2023-01-12T13:04:03.506Z,57.57
2023-01-12T13:06:32.545Z,58.12
2023-01-12T13:09:23.224Z,59.87
2023-01-12T13:11:55.674Z,60.61
2023-01-12T13:14:31.868Z,60.79
2023-01-12T13:17:26.081Z,61.14
2023-01-12T13:20:20.185Z,61.72
2023-01-12T13:22:52.176Z,62.13
2023-01-12T13:25:26.725Z,61.36
2023-01-12T13:27:59.162Z,60.47
2023-01-12T13:30:30.384Z,59.43
2023-01-12T13:33:16.179Z,60.03
2023-01-12T13:35:51.251Z,60.18
2023-01-12T13:38:25.362Z,60.33
2023-01-12T13:41:14.077Z,61.30
2023-01-12T13:44:02.976Z,62.43
2023-01-12T13:46:36.917Z,61.48
2023-01-12T13:49:22.262Z,62.31
2023-01-12T13:51:56.908Z,60.91
2023-01-12T13:54:24.656Z,60.23
2023-01-12T13:57:10.840Z,60.95
2023-01-12T13:59:39.353Z,62.01
2023-01-12T14:02:18.351Z,63.20
2023-01-12T14:04:58.172Z,65.06
2023-01-12T14:07:39.591Z,66.46
2023-01-12T14:10:39.023Z,67.95
2023-01-12T14:13:33.736Z,69.31
2023-01-12T14:16:21.226Z,70.61
2023-01-12T14:18:50.206Z,71.88
2023-01-12T14:21:26.350Z,73.24
2023-01-12T14:24:08.652Z,74.15
2023-01-12T14:26:36.242Z,74.47
2023-01-12T14:29:03.633Z,74.97
2023-01-12T14:31:39.788Z,75.25
2023-01-12T14:34:19.220Z,75.58
2023-01-12T14:36:47.029Z,76.08
2023-01-12T14:39:22.753Z,76.72
2023-01-12T14:42:12.335Z,76.85
2023-01-12T14:45:17.164Z,77.65
2023-01-12T14:47:44.571Z,77.79
2023-01-12T14:50:19.549Z,77.75
2023-01-12T14:52:48.531Z,77.69
2023-01-12T14:55:25.148Z,78.18
2023-01-12T14:57:59.902Z,78.87
2023-01-12T15:00:33.119Z,79.22
2023-01-12T15:03:05.167Z,80.02
2023-01-12T15:05:34.764Z,80.54
2023-01-12T15:08:20.089Z,80.82
2023-01-12T15:10:57.375Z,81.29
2023-01-12T15:13:29.130Z,81.98
2023-01-12T15:16:16.198Z,82.25
2023-01-12T15:19:02.374Z,82.66
2023-01-12T15:21:50.554Z,82.46
2023-01-12T15:24:45.537Z,82.53
2023-01-12T15:27:21.162Z,83.01
2023-01-12T15:29:48.852Z,83.15
2023-01-12T15:32:48.544Z,83.26
2023-01-12T15:35:25.372Z,83.41
2023-01-12T15:37:58.216Z,83.29
2023-01-12T15:40:28.743Z,82.83
2023-01-12T15:42:59.302Z,82.95
2023-01-12T15:45:39.969Z,82.83
2023-01-12T15:48:07.829Z,82.86
2023-01-12T15:50:38.578Z,82.84
2023-01-12T15:53:21.953Z,83.02
2023-01-12T15:55:51.508Z,82.91
2023-01-12T15:58:19.901Z,83.37
2023-01-12T16:00:48.327Z,84.05
2023-01-12T16:03:38.269Z,84.18
2023-01-12T16:06:02.730Z,84.86
2023-01-12T16:08:29.968Z,84.84
2023-01-12T16:11:09.736Z,84.49
2023-01-12T16:13:38.904Z,84.72
2023-01-12T16:16:16.543Z,84.54
2023-01-12T16:18:44.708Z,84.06
2023-01-12T16:21:18.658Z,84.39
2023-01-12T16:23:47.005Z,84.35
2023-01-12T16:26:14.639Z,84.07
2023-01-12T16:28:43.012Z,84.24
2023-01-12T16:31:14.195Z,84.69
2023-01-12T16:33:43.246Z,84.47
2023-01-12T16:36:12.721Z,84.57
2023-01-12T16:38:42.579Z,84.88
2023-01-12T16:41:17.375Z,84.76
2023-01-12T16:43:45.362Z,84.59
2023-01-12T16:46:15.792Z,84.56
2023-01-12T16:48:43.569Z,84.70
2023-01-12T16:51:16.537Z,84.62
2023-01-12T16:53:59.630Z,84.85
2023-01-12T16:56:29.754Z,85.07
2023-01-12T16:58:58.213Z,84.75
2023-01-12T17:01:26.609Z,84.99
2023-01-12T17:03:58.064Z,84.78
2023-01-12T17:06:28.243Z,84.77
2023-01-12T17:08:56.067Z,84.52
2023-01-12T17:11:31.069Z,84.68
2023-01-12T17:13:59.080Z,84.95
2023-01-12T17:16:29.804Z,85.09
2023-01-12T17:18:57.258Z,85.12
2023-01-12T17:21:26.626Z,85.41
2023-01-12T17:23:56.181Z,85.73
2023-01-12T17:26:24.271Z,85.84
2023-01-12T17:28:51.545Z,86.06
2023-01-12T17:31:20.710Z,86.37
2023-01-12T17:33:48.661Z,86.50
2023-01-12T17:36:17.284Z,87.19
2023-01-12T17:38:45.500Z,87.66
2023-01-12T17:41:35.363Z,87.91
2023-01-12T17:44:05.500Z,87.61
2023-01-12T17:46:34.928Z,87.67
2023-01-12T17:49:09.460Z,87.98
2023-01-12T17:51:37.541Z,87.92
2023-01-12T17:54:07.767Z,88.01
2023-01-12T17:56:35.855Z,87.76
2023-01-12T17:59:04.957Z,87.37
2023-01-12T18:01:35.383Z,87.59
2023-01-12T18:04:03.539Z,87.27
2023-01-12T18:06:37.123Z,87.06
2023-01-12T18:09:05.027Z,87.11
2023-01-12T18:11:33.516Z,87.15
2023-01-12T18:14:01.571Z,87.49
2023-01-12T18:16:30.081Z,87.64
2023-01-12T18:18:57.997Z,88.41
2023-01-12T18:21:27.852Z,88.90
2023-01-12T18:23:56.344Z,89.23
2023-01-12T18:26:27.602Z,89.45
2023-01-12T18:28:56.818Z,89.71
2023-01-12T18:31:26.684Z,89.55
2023-01-12T18:34:06.227Z,89.20
2023-01-12T18:36:36.629Z,89.06
2023-01-12T18:39:08.401Z,88.40
2023-01-12T18:41:55.942Z,88.47
2023-01-12T18:44:25.497Z,88.66
2023-01-12T18:47:14.544Z,88.90
2023-01-12T18:50:06.279Z,89.03
2023-01-12T18:52:52.570Z,89.75
2023-01-12T18:55:20.426Z,90.28
2023-01-12T18:57:48.688Z,90.58
2023-01-12T19:00:18.114Z,91.11
2023-01-12T19:02:47.277Z,91.29
2023-01-12T19:05:18.866Z,91.44
2023-01-12T19:08:04.081Z,91.43
2023-01-12T19:10:34.427Z,91.47
2023-01-12T19:13:20.769Z,91.63
2023-01-12T19:16:07.926Z,91.37
2023-01-12T19:18:39.120Z,91.25
2023-01-12T19:21:28.697Z,91.47
2023-01-12T19:24:23.013Z,91.10
2023-01-12T19:27:09.406Z,90.95
2023-01-12T19:29:39.214Z,90.71
2023-01-12T19:32:08.292Z,90.71
2023-01-12T19:34:37.708Z,90.29
2023-01-12T19:37:05.698Z,90.05
2023-01-12T19:40:00.233Z,89.67
2023-01-12T19:42:51.385Z,89.72
2023-01-12T19:45:19.642Z,89.45
2023-01-12T19:47:47.583Z,89.13
2023-01-12T19:50:17.670Z,88.38
2023-01-12T19:52:46.650Z,88.21
2023-01-12T19:55:17.230Z,87.79
2023-01-12T19:57:45.321Z,87.38
2023-01-12T20:00:16.886Z,87.02
2023-01-12T20:02:52.161Z,86.66
2023-01-12T20:05:25.760Z,86.27
2023-01-12T20:07:55.715Z,86.23
2023-01-12T20:10:24.504Z,86.35
2023-01-12T20:12:52.778Z,86.80
2023-01-12T20:15:21.412Z,87.39
2023-01-12T20:17:49.741Z,88.27
2023-01-12T20:20:18.885Z,88.72
2023-01-12T20:22:49.898Z,88.74
2023-01-12T20:25:18.095Z,88.73
2023-01-12T20:27:47.071Z,88.40
2023-01-12T20:30:31.957Z,88.46
2023-01-12T20:33:06.723Z,88.59
2023-01-12T20:35:36.230Z,89.04
2023-01-12T20:38:07.132Z,89.19
2023-01-12T20:40:34.454Z,89.23
2023-01-12T20:43:03.436Z,89.49
2023-01-12T20:45:31.451Z,90.13
2023-01-12T20:47:59.564Z,90.70
2023-01-12T20:50:28.555Z,90.89
2023-01-12T20:52:57.628Z,90.95
2023-01-12T20:55:26.379Z,91.13
2023-01-12T20:57:53.750Z,91.43
2023-01-12T21:00:23.576Z,91.88
2023-01-12T21:02:50.871Z,91.71
2023-01-12T21:05:21.557Z,92.14
2023-01-12T21:07:52.052Z,92.39
2023-01-12T21:10:22.713Z,92.74
2023-01-12T21:12:51.164Z,93.12
2023-01-12T21:15:20.080Z,93.45
2023-01-12T21:17:47.685Z,93.70
2023-01-12T21:20:15.107Z,94.17
2023-01-12T21:22:42.543Z,94.47
2023-01-12T21:25:10.986Z,94.66
2023-01-12T21:27:38.567Z,94.97
2023-01-12T21:30:09.441Z,95.04
2023-01-12T21:32:37.889Z,94.79
2023-01-12T21:35:06.711Z,94.81
2023-01-12T21:37:33.851Z,94.59
2023-01-12T21:40:02.283Z,94.82
2023-01-12T21:42:48.234Z,94.86
2023-01-12T21:45:15.775Z,95.20
2023-01-12T21:47:55.732Z,95.69
2023-01-12T21:50:23.260Z,95.59
2023-01-12T21:52:52.917Z,95.46
2023-01-12T21:55:20.527Z,95.74
2023-01-12T21:57:48.180Z,95.95
2023-01-12T22:00:16.154Z,96.06
2023-01-12T22:02:44.609Z,96.56
2023-01-12T22:05:14.009Z,97.53
2023-01-12T22:07:48.831Z,98.28
2023-01-12T22:10:22.098Z,99.12
2023-01-12T22:12:55.283Z,99.67
2023-01-12T22:15:25.720Z,100.00
2023-01-12T22:17:54.445Z,100.00
2023-01-12T22:20:24.455Z,100.00
2023-01-12T22:22:56.962Z,100.00
2023-01-12T22:25:26.438Z,100.00
2023-01-12T22:28:00.843Z,100.00
2023-01-12T22:30:28.332Z,100.00
2023-01-12T22:32:56.637Z,100.00
2023-01-12T22:35:26.464Z,100.00
2023-01-12T22:37:54.911Z,100.00
2023-01-12T22:40:26.331Z,100.00
2023-01-12T22:43:12.299Z,100.00
2023-01-12T22:45:40.697Z,100.00
2023-01-12T22:48:08.227Z,100.00
2023-01-12T22:50:35.669Z,100.00
2023-01-12T22:53:03.053Z,100.00
2023-01-12T22:55:30.607Z,100.00
2023-01-12T22:57:57.890Z,100.00
2023-01-12T23:00:25.827Z,100.00
2023-01-12T23:03:02.508Z,100.00
2023-01-12T23:05:36.599Z,100.00
2023-01-12T23:08:05.950Z,100.00
2023-01-12T23:10:36.373Z,100.00
2023-01-12T23:13:17.338Z,100.00
2023-01-12T23:15:50.333Z,100.00
2023-01-12T23:18:19.882Z,100.00
2023-01-12T23:20:48.394Z,100.00
2023-01-12T23:23:18.096Z,100.00
2023-01-12T23:25:47.038Z,100.00
2023-01-12T23:28:15.871Z,100.00
2023-01-12T23:30:44.382Z,100.00
2023-01-12T23:36:04.720Z,100.00
2023-01-12T23:38:32.179Z,100.00
2023-01-12T23:41:00.194Z,100.00
2023-01-12T23:43:28.171Z,100.00
2023-01-12T23:45:55.532Z,100.00
2023-01-12T23:48:24.109Z,100.00
2023-01-12T23:50:51.439Z,100.00
2023-01-12T23:53:18.933Z,100.00
2023-01-12T23:55:46.383Z,100.00
2023-01-12T23:58:19.923Z,100.00
